createdAt,value
2023-09-15T00:04:07.622Z,6.53
2023-09-15T00:08:24.304Z,8.45
2023-09-15T00:12:42.137Z,7.97
2023-09-15T00:16:58.407Z,11.85
2023-09-15T00:21:17.472Z,8.23
2023-09-15T00:25:34.959Z,8.68
2023-09-15T00:29:51.102Z,10.13
2023-09-15T00:34:07.458Z,9.38
2023-09-15T00:38:23.692Z,9.30
2023-09-15T00:42:39.996Z,8.68
2023-09-15T00:46:56.298Z,8.73
2023-09-15T00:51:13.131Z,7.90
2023-09-15T00:55:30.651Z,8.95
2023-09-15T00:59:47.083Z,9.88
2023-09-15T01:04:04.111Z,8.90
2023-09-15T01:08:20.445Z,8.43
2023-09-15T01:12:36.706Z,8.65
2023-09-15T01:17:11.024Z,8.32
2023-09-15T01:21:45.788Z,9.38
2023-09-15T01:26:45.628Z,7.93
2023-09-15T01:31:02.349Z,11.20
2023-09-15T01:35:18.700Z,9.00
2023-09-15T01:39:34.955Z,8.65
2023-09-15T01:43:52.934Z,8.98
2023-09-15T01:48:10.265Z,8.95
2023-09-15T01:52:26.734Z,9.52
2023-09-15T01:56:42.983Z,11.07
2023-09-15T02:00:59.309Z,10.70
2023-09-15T02:05:24.780Z,9.85
2023-09-15T02:09:40.995Z,8.65
2023-09-15T02:13:57.187Z,9.73
2023-09-15T02:18:13.738Z,8.50
2023-09-15T02:22:29.985Z,9.98
2023-09-15T02:26:46.385Z,10.15
2023-09-15T02:31:07.570Z,8.60
2023-09-15T02:35:23.830Z,9.30
2023-09-15T02:39:40.142Z,9.48
2023-09-15T02:43:56.530Z,9.82
2023-09-15T02:48:12.729Z,9.57
2023-09-15T02:52:29.402Z,11.60
2023-09-15T02:56:45.569Z,10.07
2023-09-15T03:01:10.851Z,9.75
2023-09-15T03:05:27.906Z,9.68
2023-09-15T03:09:44.580Z,8.35
2023-09-15T03:14:00.846Z,9.30
2023-09-15T03:18:17.236Z,9.43
2023-09-15T03:22:33.540Z,9.10
2023-09-15T03:26:49.788Z,10.43
2023-09-15T03:31:06.381Z,10.05
2023-09-15T03:35:22.625Z,9.23
2023-09-15T03:39:38.800Z,10.80
2023-09-15T03:43:55.601Z,9.93
2023-09-15T03:48:11.828Z,10.65
2023-09-15T03:52:28.108Z,10.82
2023-09-15T03:56:44.368Z,10.70
2023-09-15T04:01:00.774Z,11.12
2023-09-15T04:05:17.331Z,9.13
2023-09-15T04:09:35.242Z,8.68
2023-09-15T04:13:51.655Z,11.10
2023-09-15T04:18:09.532Z,9.30
2023-09-15T04:22:26.840Z,9.98
2023-09-15T04:26:43.524Z,9.52
2023-09-15T04:30:59.768Z,10.18
2023-09-15T04:35:16.105Z,10.70
2023-09-15T04:39:32.289Z,9.85
2023-09-15T04:43:48.805Z,11.50
2023-09-15T04:48:05.314Z,9.45
2023-09-15T04:52:21.644Z,9.30
2023-09-15T04:56:37.867Z,8.85
2023-09-15T05:01:00.568Z,13.00
2023-09-15T05:05:17.070Z,11.10
2023-09-15T05:09:33.386Z,11.07
2023-09-15T05:13:49.596Z,10.75
2023-09-15T05:18:06.000Z,11.88
2023-09-15T05:22:22.240Z,10.38
2023-09-15T05:26:38.473Z,10.00
2023-09-15T05:31:00.828Z,11.98
2023-09-15T05:35:17.977Z,10.18
2023-09-15T05:39:34.183Z,11.30
2023-09-15T05:43:50.378Z,11.55
2023-09-15T05:48:06.775Z,11.75
2023-09-15T05:52:23.064Z,11.93
2023-09-15T05:56:39.548Z,13.10
2023-09-15T06:00:59.249Z,10.75
2023-09-15T06:05:15.799Z,11.57
2023-09-15T06:09:32.189Z,10.50
2023-09-15T06:13:48.460Z,12.32
2023-09-15T06:18:05.067Z,12.93
2023-09-15T06:22:21.535Z,10.95
2023-09-15T06:26:39.483Z,12.60
2023-09-15T06:30:56.047Z,9.98
2023-09-15T06:35:14.451Z,12.37
2023-09-15T06:39:31.401Z,11.70
2023-09-15T06:43:47.684Z,10.82
2023-09-15T06:48:04.172Z,13.07
2023-09-15T06:52:20.819Z,14.63
2023-09-15T06:56:37.209Z,11.18
2023-09-15T07:00:56.739Z,10.80
2023-09-15T07:05:13.291Z,10.23
2023-09-15T07:09:29.625Z,9.63
2023-09-15T07:13:47.787Z,9.80
2023-09-15T07:18:05.923Z,12.25
2023-09-15T07:22:22.197Z,10.05
2023-09-15T07:26:38.727Z,10.05
2023-09-15T07:31:08.084Z,10.02
2023-09-15T07:35:24.777Z,11.30
2023-09-15T07:39:41.148Z,11.93
2023-09-15T07:44:02.043Z,9.25
2023-09-15T07:48:18.732Z,7.95
2023-09-15T07:52:36.524Z,9.20
2023-09-15T07:56:52.840Z,8.27
2023-09-15T08:01:09.189Z,5.70
2023-09-15T08:05:25.507Z,7.95
2023-09-15T08:09:42.054Z,8.23
2023-09-15T08:13:58.282Z,7.18
2023-09-15T08:18:14.583Z,8.10
2023-09-15T08:22:33.466Z,6.97
2023-09-15T08:26:49.932Z,8.50
2023-09-15T08:31:07.173Z,9.55
2023-09-15T08:35:23.430Z,7.18
2023-09-15T08:39:39.824Z,8.05
2023-09-15T08:43:57.072Z,7.70
2023-09-15T08:48:16.260Z,6.75
2023-09-15T08:52:33.503Z,8.88
2023-09-15T08:56:50.117Z,5.72
2023-09-15T09:01:08.921Z,8.88
2023-09-15T09:05:25.828Z,4.65
2023-09-15T09:09:43.161Z,5.90
2023-09-15T09:13:59.543Z,5.07
2023-09-15T09:18:17.800Z,6.25
2023-09-15T09:22:36.070Z,5.80
2023-09-15T09:26:58.895Z,6.28
2023-09-15T09:31:16.481Z,5.82
2023-09-15T09:35:32.892Z,4.87
2023-09-15T09:39:49.230Z,6.15
2023-09-15T09:44:05.815Z,3.83
2023-09-15T09:48:24.948Z,4.60
2023-09-15T09:52:42.546Z,4.85
2023-09-15T09:56:58.745Z,4.70
2023-09-15T10:01:15.607Z,4.43
2023-09-15T10:05:32.908Z,6.07
2023-09-15T10:09:49.578Z,4.12
2023-09-15T10:14:06.514Z,4.78
2023-09-15T10:18:23.190Z,4.55
2023-09-15T10:22:39.758Z,4.32
2023-09-15T10:26:56.071Z,6.43
2023-09-15T10:31:14.051Z,7.12
2023-09-15T10:35:30.540Z,4.47
2023-09-15T10:39:48.225Z,4.78
2023-09-15T10:44:04.633Z,6.28
2023-09-15T10:48:20.915Z,3.90
2023-09-15T10:52:39.141Z,6.95
2023-09-15T10:56:56.605Z,4.47
2023-09-15T11:01:13.061Z,5.30
2023-09-15T11:05:29.770Z,4.07
2023-09-15T11:09:46.653Z,3.58
2023-09-15T11:14:03.154Z,4.70
2023-09-15T11:18:20.183Z,4.50
2023-09-15T11:22:40.872Z,4.03
2023-09-15T11:26:58.060Z,3.72
2023-09-15T11:31:14.919Z,7.05
2023-09-15T11:35:31.731Z,9.98
2023-09-15T11:39:52.133Z,9.45
2023-09-15T11:44:10.145Z,3.92
2023-09-15T11:48:26.617Z,14.00
2023-09-15T11:52:42.942Z,25.98
2023-09-15T11:57:00.288Z,13.27
2023-09-15T12:01:17.995Z,11.55
2023-09-15T12:05:34.370Z,5.53
2023-09-15T12:09:52.527Z,4.93
2023-09-15T12:14:11.249Z,5.68
2023-09-15T12:18:28.358Z,4.60
2023-09-15T12:22:45.600Z,4.80
2023-09-15T12:27:04.105Z,6.32
2023-09-15T12:31:22.281Z,4.07
2023-09-15T12:35:41.747Z,5.07
2023-09-15T12:39:57.953Z,5.80
2023-09-15T12:44:14.258Z,3.45
2023-09-15T12:48:31.380Z,10.38
2023-09-15T12:52:48.001Z,6.95
2023-09-15T12:57:04.542Z,4.32
2023-09-15T13:01:20.817Z,5.20
2023-09-15T13:05:37.075Z,4.35
2023-09-15T13:09:53.563Z,4.50
2023-09-15T13:14:09.814Z,4.78
2023-09-15T13:18:26.225Z,4.32
2023-09-15T13:22:42.506Z,4.35
2023-09-15T13:26:58.926Z,3.55
2023-09-15T13:31:15.279Z,3.95
2023-09-15T13:35:31.554Z,4.32
2023-09-15T13:39:48.062Z,4.85
2023-09-15T13:44:04.852Z,3.67
2023-09-15T13:48:22.043Z,3.03
2023-09-15T13:52:38.422Z,3.50
2023-09-15T13:56:54.995Z,4.70
2023-09-15T14:01:12.203Z,5.95
2023-09-15T14:05:28.655Z,4.37
2023-09-15T14:09:44.943Z,2.42
2023-09-15T14:14:01.197Z,4.20
2023-09-15T14:18:17.682Z,4.57
2023-09-15T14:22:34.261Z,4.12
2023-09-15T14:26:50.548Z,2.47
2023-09-15T14:31:06.768Z,2.95
2023-09-15T14:35:23.146Z,4.00
2023-09-15T14:39:39.464Z,5.82
2023-09-15T14:43:56.506Z,5.18
2023-09-15T14:48:15.178Z,5.70
2023-09-15T14:52:31.487Z,3.97
2023-09-15T14:56:47.993Z,5.57
2023-09-15T15:01:04.514Z,4.03
2023-09-15T15:05:20.977Z,3.58
2023-09-15T15:09:38.767Z,2.35
2023-09-15T15:13:55.153Z,9.90
2023-09-15T15:18:18.030Z,2.75
2023-09-15T15:22:34.443Z,5.60
2023-09-15T15:26:50.712Z,2.08
2023-09-15T15:31:14.376Z,2.80
2023-09-15T15:35:33.337Z,3.40
2023-09-15T15:39:50.089Z,4.12
2023-09-15T15:44:09.586Z,3.70
2023-09-15T15:48:26.763Z,4.35
2023-09-15T15:52:43.148Z,3.17
2023-09-15T15:56:59.424Z,2.58
2023-09-15T16:01:15.874Z,3.83
2023-09-15T16:05:32.289Z,8.10
2023-09-15T16:09:48.702Z,3.28
2023-09-15T16:14:05.069Z,9.02
2023-09-15T16:18:30.484Z,5.43
2023-09-15T16:22:48.831Z,4.10
2023-09-15T16:27:05.301Z,4.28
2023-09-15T16:31:21.532Z,2.60
2023-09-15T16:35:38.656Z,3.47
2023-09-15T16:39:55.014Z,4.62
2023-09-15T16:44:11.353Z,4.65
2023-09-15T16:48:28.926Z,3.95
2023-09-15T16:52:45.401Z,5.35
2023-09-15T16:57:04.220Z,12.70
2023-09-15T17:01:20.622Z,5.22
2023-09-15T17:05:37.025Z,4.32
2023-09-15T17:09:54.082Z,6.05
2023-09-15T17:14:11.032Z,4.70
2023-09-15T17:18:27.458Z,6.03
2023-09-15T17:22:44.531Z,3.53
2023-09-15T17:27:01.814Z,5.62
2023-09-15T17:31:18.562Z,5.53
2023-09-15T17:35:35.164Z,5.95
2023-09-15T17:39:51.967Z,3.03
2023-09-15T17:44:09.756Z,3.35
2023-09-15T17:48:26.163Z,6.12
2023-09-15T17:52:43.316Z,5.18
2023-09-15T17:56:59.818Z,4.32
2023-09-15T18:01:16.558Z,4.93
2023-09-15T18:05:34.730Z,3.47
2023-09-15T18:09:53.331Z,12.43
2023-09-15T18:14:09.699Z,5.32
2023-09-15T18:18:26.210Z,4.95
2023-09-15T18:22:42.702Z,4.90
2023-09-15T18:26:59.284Z,6.72
2023-09-15T18:31:16.477Z,5.82
2023-09-15T18:35:32.843Z,8.65
2023-09-15T18:39:49.307Z,8.10
2023-09-15T18:44:05.748Z,5.55
2023-09-15T18:48:21.999Z,9.18
2023-09-15T18:52:38.362Z,7.07
2023-09-15T18:56:57.485Z,4.37
2023-09-15T19:01:14.002Z,5.55
2023-09-15T19:05:33.573Z,7.37
2023-09-15T19:09:49.848Z,8.32
2023-09-15T19:14:06.619Z,4.70
2023-09-15T19:18:24.744Z,5.47
2023-09-15T19:22:41.222Z,5.50
2023-09-15T19:26:57.556Z,6.35
2023-09-15T19:31:13.734Z,4.03
2023-09-15T19:35:31.085Z,5.47
2023-09-15T19:39:47.448Z,4.68
2023-09-15T19:44:03.805Z,4.15
2023-09-15T19:48:20.118Z,3.17
2023-09-15T19:52:36.384Z,4.47
2023-09-15T19:56:54.751Z,4.85
2023-09-15T20:01:11.216Z,4.40
2023-09-15T20:05:28.989Z,5.28
2023-09-15T20:09:45.314Z,5.62
2023-09-15T20:14:02.086Z,4.47
2023-09-15T20:18:18.410Z,14.55
2023-09-15T20:22:35.814Z,4.68
2023-09-15T20:26:52.042Z,5.37
2023-09-15T20:31:08.346Z,3.92
2023-09-15T20:35:25.217Z,5.20
2023-09-15T20:39:44.222Z,3.60
2023-09-15T20:44:00.551Z,5.03
2023-09-15T20:48:16.882Z,6.68
2023-09-15T20:52:33.153Z,4.05
2023-09-15T20:56:49.361Z,3.58
2023-09-15T21:01:07.981Z,6.80
2023-09-15T21:05:24.313Z,3.78
2023-09-15T21:09:40.625Z,4.70
2023-09-15T21:13:57.466Z,6.53
2023-09-15T21:18:14.906Z,4.82
2023-09-15T21:22:31.345Z,4.30
2023-09-15T21:26:47.629Z,4.72
2023-09-15T21:31:10.565Z,4.12
2023-09-15T21:39:43.087Z,5.05
2023-09-15T21:44:01.123Z,6.62
2023-09-15T21:48:17.481Z,6.93
2023-09-15T21:52:33.820Z,4.00
2023-09-15T21:56:50.087Z,3.95
2023-09-15T22:01:06.828Z,4.97
2023-09-15T22:05:23.349Z,4.57
2023-09-15T22:09:39.660Z,3.47
2023-09-15T22:13:56.011Z,5.47
2023-09-15T22:18:14.583Z,5.43
2023-09-15T22:22:30.888Z,4.97
2023-09-15T22:26:47.167Z,3.50
2023-09-15T22:31:03.581Z,6.37
2023-09-15T22:35:20.008Z,5.55
2023-09-15T22:39:39.145Z,6.25
2023-09-15T22:43:55.489Z,3.58
2023-09-15T22:48:15.523Z,3.97
2023-09-15T22:52:32.200Z,7.35
2023-09-15T22:56:48.440Z,3.03
2023-09-15T23:01:05.411Z,4.78
2023-09-15T23:05:21.762Z,3.85
2023-09-15T23:09:38.077Z,5.12
2023-09-15T23:13:54.505Z,3.12
2023-09-15T23:18:10.758Z,4.78
2023-09-15T23:22:28.311Z,3.20
2023-09-15T23:26:44.623Z,4.25
2023-09-15T23:31:00.958Z,3.83
2023-09-15T23:35:17.513Z,4.15
2023-09-15T23:39:36.217Z,3.70
2023-09-15T23:43:52.840Z,3.10
2023-09-15T23:48:09.876Z,4.15
2023-09-15T23:52:26.307Z,2.58
2023-09-15T23:56:43.815Z,4.75
